Map

Track Data

SID SEASON NUMBER BASIN SUBBASIN NAME ISO_TIME NATURE LAT LON WMO_WIND WMO_PRES WMO_AGENCY TRACK_TYPE DIST2LAND LANDFALL IFLAG USA_AGENCY USA_ATCF_ID USA_LAT USA_LON USA_RECORD USA_STATUS USA_WIND USA_PRES USA_SSHS USA_R34_NE USA_R34_SE USA_R34_SW USA_R34_NW USA_R50_NE USA_R50_SE USA_R50_SW USA_R50_NW USA_R64_NE USA_R64_SE USA_R64_SW USA_R64_NW USA_POCI USA_ROCI USA_RMW USA_EYE TOKYO_LAT TOKYO_LON TOKYO_GRADE TOKYO_WIND TOKYO_PRES TOKYO_R50_DIR TOKYO_R50_LONG TOKYO_R50_SHORT TOKYO_R30_DIR TOKYO_R30_LONG TOKYO_R30_SHORT TOKYO_LAND CMA_LAT CMA_LON CMA_CAT CMA_WIND CMA_PRES HKO_LAT HKO_LON HKO_CAT HKO_WIND HKO_PRES NEWDELHI_LAT NEWDELHI_LON NEWDELHI_GRADE NEWDELHI_WIND NEWDELHI_PRES NEWDELHI_CI NEWDELHI_DP NEWDELHI_POCI REUNION_LAT REUNION_LON REUNION_TYPE REUNION_WIND REUNION_PRES REUNION_TNUM REUNION_CI REUNION_RMW REUNION_R34_NE REUNION_R34_SE REUNION_R34_SW REUNION_R34_NW REUNION_R50_NE REUNION_R50_SE REUNION_R50_SW REUNION_R50_NW REUNION_R64_NE REUNION_R64_SE REUNION_R64_SW REUNION_R64_NW BOM_LAT BOM_LON BOM_TYPE BOM_WIND BOM_PRES BOM_TNUM BOM_CI BOM_RMW BOM_R34_NE BOM_R34_SE BOM_R34_SW BOM_R34_NW BOM_R50_NE BOM_R50_SE BOM_R50_SW BOM_R50_NW BOM_R64_NE BOM_R64_SE BOM_R64_SW BOM_R64_NW BOM_ROCI BOM_POCI BOM_EYE BOM_POS_METHOD BOM_PRES_METHOD NADI_LAT NADI_LON NADI_CAT NADI_WIND NADI_PRES WELLINGTON_LAT WELLINGTON_LON WELLINGTON_WIND WELLINGTON_PRES DS824_LAT DS824_LON DS824_STAGE DS824_WIND DS824_PRES TD9636_LAT TD9636_LON TD9636_STAGE TD9636_WIND TD9636_PRES TD9635_LAT TD9635_LON TD9635_WIND TD9635_PRES TD9635_ROCI NEUMANN_LAT NEUMANN_LON NEUMANN_CLASS NEUMANN_WIND NEUMANN_PRES MLC_LAT MLC_LON MLC_CLASS MLC_WIND MLC_PRES USA_GUST BOM_GUST BOM_GUST_PER REUNION_GUST REUNION_GUST_PER USA_SEAHGT USA_SEARAD_NE USA_SEARAD_SE USA_SEARAD_SW USA_SEARAD_NW STORM_SPEED STORM_DIR
2003098S23041 2003 24 SI MM LUMA 2003-04-08 00:00:00 TS -23.4000 40.7000 20 1005 reunion main 284 284 _____O________ -1 -23.4000 40.7000 2 20 1005 1.50000 1.50000 9 0
2003098S23041 2003 24 SI MM LUMA 2003-04-08 03:00:00 TS -23.8324 40.7045 main 295 295 _____P________ -1 -23.8324 40.7045 2 20 1005 9 185
2003098S23041 2003 24 SI MM LUMA 2003-04-08 06:00:00 TS -24.3000 40.6000 20 1005 reunion main 311 311 _____O________ -1 -24.3000 40.6000 2 20 1005 1.50000 1.50000 10 200
2003098S23041 2003 24 SI MM LUMA 2003-04-08 09:00:00 TS -24.8027 40.3232 main 352 352 _____P________ -1 -24.8027 40.3232 2 22 1004 11 211
2003098S23041 2003 24 SI MM LUMA 2003-04-08 12:00:00 TS -25.2000 40.0000 25 1004 reunion main 388 388 _____O________ -1 -25.2000 40.0000 2 25 1004 1.50000 1.50000 7 222
2003098S23041 2003 24 SI MM LUMA 2003-04-08 15:00:00 TS -25.3524 39.7771 main 412 412 _____P________ -1 -25.3524 39.7771 2 27 1003 4 241
2003098S23041 2003 24 SI MM LUMA 2003-04-08 18:00:00 SS -25.4000 39.6000 30 1002 reunion main 432 423 _____O________ -1 -25.4000 39.6000 7 30 1002 2.00000 2.00000 3 245
2003098S23041 2003 24 SI MM LUMA 2003-04-08 21:00:00 SS -25.5000 39.4275 main 423 418 _____P________ -1 -25.5000 39.4275 7 30 1002 3 234
2003098S23041 2003 24 SI MM LUMA 2003-04-09 00:00:00 SS -25.6000 39.3000 30 1002 reunion main 418 408 _____O________ -1 -25.6000 39.3000 7 30 1002 2.00000 2.00000 3 227
2003098S23041 2003 24 SI MM LUMA 2003-04-09 03:00:00 SS -25.7223 39.1600 main 413 404 _____P________ -1 -25.7223 39.1600 7 30 1002 2 205
2003098S23041 2003 24 SI MM LUMA 2003-04-09 06:00:00 SS -25.8000 39.2000 30 1002 reunion main 418 418 _____O________ -1 -25.8000 39.2000 7 30 1002 2.00000 2.00000 3 93
2003098S23041 2003 24 SI MM LUMA 2003-04-09 09:00:00 SS -25.7422 39.5306 main 440 391 _____P________ -1 -25.7422 39.5306 7 30 1002 8 83
2003098S23041 2003 24 SI MM LUMA 2003-04-09 12:00:00 SS -25.7000 40.1000 30 1002 reunion main 391 330 _____O________ -1 -25.7000 40.1000 7 30 1002 2.00000 2.00000 11 91
2003098S23041 2003 24 SI MM LUMA 2003-04-09 15:00:00 SS -25.7676 40.7983 main 330 265 _____P________ -1 -25.7676 40.7983 7 31 1001 14 103
2003098S23041 2003 24 SI MM LUMA 2003-04-09 18:00:00 SS -26.0000 41.6000 33 1000 reunion main 265 231 _____O________ -1 -26.0000 41.6000 7 33 1000 2.50000 2.50000 16 116
2003098S23041 2003 24 SI MM LUMA 2003-04-09 21:00:00 SS -26.4469 42.3773 main 223 218 _____P________ -1 -26.4469 42.3773 7 35 998 17 125
2003098S23041 2003 24 SI MM LUMA 2003-04-10 00:00:00 SS -27.0000 43.2000 38 996 reunion main 224 224 _____O________ -1 -27.0000 43.2000 7 38 996 3.00000 3.00000 18 125
2003098S23041 2003 24 SI MM LUMA 2003-04-10 03:00:00 SS -27.4844 44.0713 main 238 234 _____P________ -1 -27.4844 44.0713 7 41 994 19 122
2003098S23041 2003 24 SI MM LUMA 2003-04-10 06:00:00 SS -28.0000 45.0000 45 992 reunion main 268 268 _____O________ -1 -28.0000 45.0000 7 45 992 3.00000 3.00000 20 124
2003098S23041 2003 24 SI MM LUMA 2003-04-10 09:00:00 SS -28.6060 45.9406 main 337 337 _____P________ -1 -28.6060 45.9406 7 47 990 21 124
2003098S23041 2003 24 SI MM LUMA 2003-04-10 12:00:00 SS -29.2000 47.0000 50 988 reunion main 428 428 _____O________ -1 -29.2000 47.0000 7 50 988 3.50000 3.50000 23 118
2003098S23041 2003 24 SI MM LUMA 2003-04-10 15:00:00 SS -29.6565 48.2275 main 521 521 _____P________ -1 -29.6565 48.2275 7 50 988 24 112
2003098S23041 2003 24 SI MM LUMA 2003-04-10 18:00:00 SS -30.1000 49.6000 50 988 reunion main 612 612 _____O________ -1 -30.1000 49.6000 7 50 988 3.50000 3.50000 26 112
2003098S23041 2003 24 SI MM LUMA 2003-04-10 21:00:00 SS -30.6183 51.0421 main 728 728 _____P________ -1 -30.6183 51.0421 7 55 986 28 113
2003098S23041 2003 24 SI MM LUMA 2003-04-11 00:00:00 SS -31.2000 52.6000 60 984 reunion main 874 874 _____O________ -1 -31.2000 52.6000 7 60 984 4.00000 4.00000 30 114
2003098S23041 2003 24 SI MM LUMA 2003-04-11 03:00:00 SS -31.8015 54.2148 main 1025 1025 _____P________ -1 -31.8015 54.2148 7 65 982 32 114
2003098S23041 2003 24 SI MM LUMA 2003-04-11 06:00:00 SS -32.5000 56.0000 70 980 reunion main 1202 1202 _____O________ -1 -32.5000 56.0000 7 70 980 5.00000 5.00000 35 115
2003098S23041 2003 24 SI MM LUMA 2003-04-11 09:00:00 SS -33.3018 57.9917 main 1349 1349 _____P________ -1 -33.3018 57.9917 7 62 983 39 116
2003098S23041 2003 24 SI MM LUMA 2003-04-11 12:00:00 ET -34.2000 60.2000 55 987 reunion main 1498 1498 _____O________ -1 -34.2000 60.2000 5 55 987 9.90000 42 115
2003098S23041 2003 24 SI MM LUMA 2003-04-11 15:00:00 ET -35.0942 62.5758 main 1608 1458 _____P________ -1 -35.0942 62.5758 5 50 989 44 115
2003098S23041 2003 24 SI MM LUMA 2003-04-11 18:00:00 ET -36.1000 65.1000 45 992 reunion main 1445 1294 _____O________ -1 -36.1000 65.1000 5 45 992 9.90000 47 118
2003098S23041 2003 24 SI MM LUMA 2003-04-11 21:00:00 ET -37.2663 67.7066 main 1282 1159 _____P________ -1 -37.2663 67.7066 5 42 994 48 120
2003098S23041 2003 24 SI MM LUMA 2003-04-12 00:00:00 ET -38.5000 70.4000 40 997 reunion main 1150 _____O________ -1 -38.5000 70.4000 5 40 997 9.90000 49 120

About IBTrACS Database

This database is a web-friendly format of International Best Track Archive for Climate Stewardship (IBTrACS), a global best track data archive curated by NOAA dating back to 1842.

Updated: 2021-11-26